sensor_id;sensor_type;location;lat;lon;timestamp;temperature;humidity
55004;DHT22;40900;52.710;6.438;2023-07-24T00:02:03;17.70;99.90
55004;DHT22;40900;52.710;6.438;2023-07-24T00:04:31;17.70;99.90
55004;DHT22;40900;52.710;6.438;2023-07-24T00:06:57;17.60;99.90
55004;DHT22;40900;52.710;6.438;2023-07-24T00:09:23;17.60;99.90
55004;DHT22;40900;52.710;6.438;2023-07-24T00:11:49;17.50;99.90
55004;DHT22;40900;52.710;6.438;2023-07-24T00:14:17;17.40;99.90
55004;DHT22;40900;52.710;6.438;2023-07-24T00:16:43;17.40;99.90
55004;DHT22;40900;52.710;6.438;2023-07-24T00:19:09;17.40;99.90
55004;DHT22;40900;52.710;6.438;2023-07-24T00:21:35;17.30;99.90
55004;DHT22;40900;52.710;6.438;2023-07-24T00:24:00;17.30;99.90
55004;DHT22;40900;52.710;6.438;2023-07-24T00:26:26;17.30;99.90
55004;DHT22;40900;52.710;6.438;2023-07-24T00:28:52;17.30;99.90
55004;DHT22;40900;52.710;6.438;2023-07-24T00:31:17;17.20;99.90
55004;DHT22;40900;52.710;6.438;2023-07-24T00:33:43;17.10;99.90
55004;DHT22;40900;52.710;6.438;2023-07-24T00:36:09;17.10;99.90
55004;DHT22;40900;52.710;6.438;2023-07-24T00:38:35;17.10;99.90
55004;DHT22;40900;52.710;6.438;2023-07-24T00:41:01;17.00;99.90
55004;DHT22;40900;52.710;6.438;2023-07-24T00:43:26;17.10;99.90
55004;DHT22;40900;52.710;6.438;2023-07-24T00:45:54;17.00;99.90
55004;DHT22;40900;52.710;6.438;2023-07-24T00:48:21;17.00;99.90
55004;DHT22;40900;52.710;6.438;2023-07-24T00:50:47;17.00;99.90
55004;DHT22;40900;52.710;6.438;2023-07-24T00:53:17;17.00;99.90
55004;DHT22;40900;52.710;6.438;2023-07-24T00:55:44;17.00;99.90
55004;DHT22;40900;52.710;6.438;2023-07-24T00:58:12;17.00;99.90
55004;DHT22;40900;52.710;6.438;2023-07-24T01:00:39;16.90;99.90
55004;DHT22;40900;52.710;6.438;2023-07-24T01:03:05;16.90;99.90
55004;DHT22;40900;52.710;6.438;2023-07-24T01:05:31;16.90;99.90
55004;DHT22;40900;52.710;6.438;2023-07-24T01:07:57;16.90;99.90
55004;DHT22;40900;52.710;6.438;2023-07-24T01:10:23;16.90;99.90
55004;DHT22;40900;52.710;6.438;2023-07-24T01:12:59;16.80;99.90
55004;DHT22;40900;52.710;6.438;2023-07-24T01:15:42;16.80;99.90
55004;DHT22;40900;52.710;6.438;2023-07-24T01:18:10;16.80;99.90
55004;DHT22;40900;52.710;6.438;2023-07-24T01:20:38;16.80;99.90
55004;DHT22;40900;52.710;6.438;2023-07-24T01:25:57;16.80;99.90
55004;DHT22;40900;52.710;6.438;2023-07-24T01:28:26;16.90;99.90
55004;DHT22;40900;52.710;6.438;2023-07-24T01:30:53;16.90;99.90
55004;DHT22;40900;52.710;6.438;2023-07-24T01:33:19;16.90;99.90
55004;DHT22;40900;52.710;6.438;2023-07-24T01:35:51;16.90;99.90
55004;DHT22;40900;52.710;6.438;2023-07-24T01:38:19;16.90;99.90
55004;DHT22;40900;52.710;6.438;2023-07-24T01:40:45;16.90;99.90
55004;DHT22;40900;52.710;6.438;2023-07-24T01:43:11;16.90;99.90
55004;DHT22;40900;52.710;6.438;2023-07-24T01:45:36;16.80;99.90
55004;DHT22;40900;52.710;6.438;2023-07-24T01:48:04;16.90;99.90
55004;DHT22;40900;52.710;6.438;2023-07-24T01:50:31;16.90;99.90
55004;DHT22;40900;52.710;6.438;2023-07-24T01:52:56;16.90;99.90
55004;DHT22;40900;52.710;6.438;2023-07-24T01:55:22;16.80;99.90
55004;DHT22;40900;52.710;6.438;2023-07-24T01:57:48;16.80;99.90
55004;DHT22;40900;52.710;6.438;2023-07-24T02:00:14;16.80;99.90
55004;DHT22;40900;52.710;6.438;2023-07-24T02:02:39;16.80;99.90
55004;DHT22;40900;52.710;6.438;2023-07-24T02:05:05;16.80;99.90
55004;DHT22;40900;52.710;6.438;2023-07-24T02:07:31;16.70;99.90
55004;DHT22;40900;52.710;6.438;2023-07-24T02:09:57;16.70;99.90
55004;DHT22;40900;52.710;6.438;2023-07-24T02:12:23;16.70;99.90
55004;DHT22;40900;52.710;6.438;2023-07-24T02:14:48;16.70;99.90
55004;DHT22;40900;52.710;6.438;2023-07-24T02:17:17;16.80;99.90
55004;DHT22;40900;52.710;6.438;2023-07-24T02:19:43;16.70;99.90
55004;DHT22;40900;52.710;6.438;2023-07-24T02:22:09;16.70;99.90
55004;DHT22;40900;52.710;6.438;2023-07-24T02:24:35;16.70;99.90
55004;DHT22;40900;52.710;6.438;2023-07-24T02:27:01;16.70;99.90
55004;DHT22;40900;52.710;6.438;2023-07-24T02:29:27;16.70;99.90
55004;DHT22;40900;52.710;6.438;2023-07-24T02:31:54;16.70;99.90
55004;DHT22;40900;52.710;6.438;2023-07-24T02:34:20;16.70;99.90
55004;DHT22;40900;52.710;6.438;2023-07-24T02:36:50;16.70;99.90
55004;DHT22;40900;52.710;6.438;2023-07-24T02:39:16;16.70;99.90
55004;DHT22;40900;52.710;6.438;2023-07-24T02:41:45;16.80;99.90
55004;DHT22;40900;52.710;6.438;2023-07-24T02:44:12;16.80;99.90
55004;DHT22;40900;52.710;6.438;2023-07-24T02:46:37;16.70;99.90
55004;DHT22;40900;52.710;6.438;2023-07-24T02:49:03;16.80;99.90
55004;DHT22;40900;52.710;6.438;2023-07-24T02:51:30;16.80;99.90
55004;DHT22;40900;52.710;6.438;2023-07-24T02:53:56;16.80;99.90
55004;DHT22;40900;52.710;6.438;2023-07-24T02:56:22;16.80;99.90
55004;DHT22;40900;52.710;6.438;2023-07-24T02:58:47;16.80;99.90
55004;DHT22;40900;52.710;6.438;2023-07-24T03:01:13;16.80;99.90
55004;DHT22;40900;52.710;6.438;2023-07-24T03:03:42;16.80;99.90
55004;DHT22;40900;52.710;6.438;2023-07-24T03:06:08;16.80;99.90
55004;DHT22;40900;52.710;6.438;2023-07-24T03:08:34;16.80;99.90
55004;DHT22;40900;52.710;6.438;2023-07-24T03:11:00;16.80;99.90
55004;DHT22;40900;52.710;6.438;2023-07-24T03:13:27;16.90;99.90
55004;DHT22;40900;52.710;6.438;2023-07-24T03:15:54;16.80;99.90
55004;DHT22;40900;52.710;6.438;2023-07-24T03:18:20;16.80;99.90
55004;DHT22;40900;52.710;6.438;2023-07-24T03:20:46;16.90;99.90
55004;DHT22;40900;52.710;6.438;2023-07-24T03:23:12;16.80;99.90
55004;DHT22;40900;52.710;6.438;2023-07-24T03:25:38;16.80;99.90
55004;DHT22;40900;52.710;6.438;2023-07-24T03:28:04;16.80;99.90
55004;DHT22;40900;52.710;6.438;2023-07-24T03:30:30;16.80;99.90
55004;DHT22;40900;52.710;6.438;2023-07-24T03:32:56;16.80;99.90
55004;DHT22;40900;52.710;6.438;2023-07-24T03:35:22;16.80;99.90
55004;DHT22;40900;52.710;6.438;2023-07-24T03:37:48;16.70;99.90
55004;DHT22;40900;52.710;6.438;2023-07-24T03:40:14;16.70;99.90
55004;DHT22;40900;52.710;6.438;2023-07-24T03:42:41;16.70;99.90
55004;DHT22;40900;52.710;6.438;2023-07-24T03:45:08;16.70;99.90
55004;DHT22;40900;52.710;6.438;2023-07-24T03:47:34;16.70;99.90
55004;DHT22;40900;52.710;6.438;2023-07-24T03:49:59;16.70;99.90
55004;DHT22;40900;52.710;6.438;2023-07-24T03:52:25;16.70;99.90
55004;DHT22;40900;52.710;6.438;2023-07-24T03:54:52;16.60;99.90
55004;DHT22;40900;52.710;6.438;2023-07-24T03:57:18;16.70;99.90
55004;DHT22;40900;52.710;6.438;2023-07-24T03:59:44;16.60;99.90
55004;DHT22;40900;52.710;6.438;2023-07-24T04:02:09;16.60;99.90
55004;DHT22;40900;52.710;6.438;2023-07-24T04:04:36;16.60;99.90
55004;DHT22;40900;52.710;6.438;2023-07-24T04:07:02;16.60;99.90
55004;DHT22;40900;52.710;6.438;2023-07-24T04:09:28;16.60;99.90
55004;DHT22;40900;52.710;6.438;2023-07-24T04:11:54;16.60;99.90
55004;DHT22;40900;52.710;6.438;2023-07-24T04:14:19;16.60;99.90
55004;DHT22;40900;52.710;6.438;2023-07-24T04:16:45;16.60;99.90
55004;DHT22;40900;52.710;6.438;2023-07-24T04:19:11;16.60;99.90
55004;DHT22;40900;52.710;6.438;2023-07-24T04:21:37;16.70;99.90
55004;DHT22;40900;52.710;6.438;2023-07-24T04:24:03;16.60;99.90
55004;DHT22;40900;52.710;6.438;2023-07-24T04:26:29;16.60;99.90
55004;DHT22;40900;52.710;6.438;2023-07-24T04:28:54;16.70;99.90
55004;DHT22;40900;52.710;6.438;2023-07-24T04:31:20;16.70;99.90
55004;DHT22;40900;52.710;6.438;2023-07-24T04:33:46;16.70;99.90
55004;DHT22;40900;52.710;6.438;2023-07-24T04:36:11;16.70;99.90
55004;DHT22;40900;52.710;6.438;2023-07-24T04:38:37;16.70;99.90
55004;DHT22;40900;52.710;6.438;2023-07-24T04:41:03;16.60;99.90
55004;DHT22;40900;52.710;6.438;2023-07-24T04:43:29;16.70;99.90
55004;DHT22;40900;52.710;6.438;2023-07-24T04:45:55;16.70;99.90
55004;DHT22;40900;52.710;6.438;2023-07-24T04:48:21;16.70;99.90
55004;DHT22;40900;52.710;6.438;2023-07-24T04:50:52;16.70;99.90
55004;DHT22;40900;52.710;6.438;2023-07-24T04:53:18;16.70;99.90
55004;DHT22;40900;52.710;6.438;2023-07-24T04:55:45;16.70;99.90
55004;DHT22;40900;52.710;6.438;2023-07-24T04:58:11;16.60;99.90
55004;DHT22;40900;52.710;6.438;2023-07-24T05:00:37;16.70;99.90
55004;DHT22;40900;52.710;6.438;2023-07-24T05:03:03;16.70;99.90
55004;DHT22;40900;52.710;6.438;2023-07-24T05:05:29;16.70;99.90
55004;DHT22;40900;52.710;6.438;2023-07-24T05:07:56;16.70;99.90
55004;DHT22;40900;52.710;6.438;2023-07-24T05:10:22;16.60;99.90
55004;DHT22;40900;52.710;6.438;2023-07-24T05:12:48;16.70;99.90
55004;DHT22;40900;52.710;6.438;2023-07-24T05:15:13;16.70;99.90
55004;DHT22;40900;52.710;6.438;2023-07-24T05:17:43;16.70;99.90
55004;DHT22;40900;52.710;6.438;2023-07-24T05:20:09;16.70;99.90
55004;DHT22;40900;52.710;6.438;2023-07-24T05:22:35;16.70;99.90
55004;DHT22;40900;52.710;6.438;2023-07-24T05:25:01;16.70;99.90
55004;DHT22;40900;52.710;6.438;2023-07-24T05:27:26;16.70;99.90
55004;DHT22;40900;52.710;6.438;2023-07-24T05:29:52;16.80;99.90
55004;DHT22;40900;52.710;6.438;2023-07-24T05:32:18;16.80;99.90
55004;DHT22;40900;52.710;6.438;2023-07-24T05:34:44;16.80;99.90
55004;DHT22;40900;52.710;6.438;2023-07-24T05:37:09;16.90;99.90
55004;DHT22;40900;52.710;6.438;2023-07-24T05:39:35;16.90;99.90
55004;DHT22;40900;52.710;6.438;2023-07-24T05:42:01;17.00;99.90
55004;DHT22;40900;52.710;6.438;2023-07-24T05:44:26;17.00;99.90
55004;DHT22;40900;52.710;6.438;2023-07-24T05:46:52;17.00;99.90
55004;DHT22;40900;52.710;6.438;2023-07-24T05:49:18;17.00;99.90
55004;DHT22;40900;52.710;6.438;2023-07-24T05:51:44;17.00;99.90
55004;DHT22;40900;52.710;6.438;2023-07-24T05:54:09;16.90;99.90
55004;DHT22;40900;52.710;6.438;2023-07-24T05:56:35;16.90;99.90
55004;DHT22;40900;52.710;6.438;2023-07-24T05:59:01;17.00;99.90
55004;DHT22;40900;52.710;6.438;2023-07-24T06:01:26;17.00;99.90
55004;DHT22;40900;52.710;6.438;2023-07-24T06:03:52;17.00;99.90
55004;DHT22;40900;52.710;6.438;2023-07-24T06:06:18;17.00;99.90
55004;DHT22;40900;52.710;6.438;2023-07-24T06:08:44;17.00;99.90
55004;DHT22;40900;52.710;6.438;2023-07-24T06:11:10;17.00;99.90
55004;DHT22;40900;52.710;6.438;2023-07-24T06:13:36;17.00;99.90
55004;DHT22;40900;52.710;6.438;2023-07-24T06:16:02;17.00;99.90
55004;DHT22;40900;52.710;6.438;2023-07-24T06:18:27;17.10;99.90
55004;DHT22;40900;52.710;6.438;2023-07-24T06:20:54;17.10;99.90
55004;DHT22;40900;52.710;6.438;2023-07-24T06:23:20;17.30;99.90
55004;DHT22;40900;52.710;6.438;2023-07-24T06:25:45;17.40;99.90
55004;DHT22;40900;52.710;6.438;2023-07-24T06:28:11;17.50;99.90
55004;DHT22;40900;52.710;6.438;2023-07-24T06:30:38;17.60;99.90
55004;DHT22;40900;52.710;6.438;2023-07-24T06:33:04;17.70;99.90
55004;DHT22;40900;52.710;6.438;2023-07-24T06:35:30;17.70;99.90
55004;DHT22;40900;52.710;6.438;2023-07-24T06:37:56;17.80;99.90
55004;DHT22;40900;52.710;6.438;2023-07-24T06:40:22;17.80;99.90
55004;DHT22;40900;52.710;6.438;2023-07-24T06:42:47;17.90;99.90
55004;DHT22;40900;52.710;6.438;2023-07-24T06:45:15;18.00;99.90
55004;DHT22;40900;52.710;6.438;2023-07-24T06:47:40;18.10;99.90
55004;DHT22;40900;52.710;6.438;2023-07-24T06:50:07;18.00;99.90
55004;DHT22;40900;52.710;6.438;2023-07-24T06:52:33;18.00;99.90
55004;DHT22;40900;52.710;6.438;2023-07-24T06:54:59;18.10;99.90
55004;DHT22;40900;52.710;6.438;2023-07-24T06:57:25;18.20;99.90
55004;DHT22;40900;52.710;6.438;2023-07-24T06:59:50;18.30;99.90
55004;DHT22;40900;52.710;6.438;2023-07-24T07:02:16;18.30;99.90
55004;DHT22;40900;52.710;6.438;2023-07-24T07:04:43;18.30;99.90
55004;DHT22;40900;52.710;6.438;2023-07-24T07:07:08;18.20;99.90
55004;DHT22;40900;52.710;6.438;2023-07-24T07:09:35;18.10;99.90
55004;DHT22;40900;52.710;6.438;2023-07-24T07:12:01;18.20;99.90
55004;DHT22;40900;52.710;6.438;2023-07-24T07:14:27;18.10;99.90
55004;DHT22;40900;52.710;6.438;2023-07-24T07:16:53;18.20;99.90
55004;DHT22;40900;52.710;6.438;2023-07-24T07:19:19;18.30;99.90
55004;DHT22;40900;52.710;6.438;2023-07-24T07:21:45;18.30;99.90
55004;DHT22;40900;52.710;6.438;2023-07-24T07:24:10;18.40;99.90
55004;DHT22;40900;52.710;6.438;2023-07-24T07:26:36;18.50;99.90
55004;DHT22;40900;52.710;6.438;2023-07-24T07:29:02;18.60;99.90
55004;DHT22;40900;52.710;6.438;2023-07-24T07:31:28;18.60;99.90
55004;DHT22;40900;52.710;6.438;2023-07-24T07:33:54;18.80;99.90
55004;DHT22;40900;52.710;6.438;2023-07-24T07:36:19;18.80;99.90
55004;DHT22;40900;52.710;6.438;2023-07-24T07:38:48;18.90;99.90
55004;DHT22;40900;52.710;6.438;2023-07-24T07:41:14;19.00;99.90
55004;DHT22;40900;52.710;6.438;2023-07-24T07:43:40;19.20;99.90
55004;DHT22;40900;52.710;6.438;2023-07-24T07:46:05;19.40;99.90
55004;DHT22;40900;52.710;6.438;2023-07-24T07:48:31;19.40;99.90
55004;DHT22;40900;52.710;6.438;2023-07-24T07:50:58;19.50;99.90
55004;DHT22;40900;52.710;6.438;2023-07-24T07:53:24;19.60;99.90
55004;DHT22;40900;52.710;6.438;2023-07-24T07:56:00;19.60;99.90
55004;DHT22;40900;52.710;6.438;2023-07-24T07:58:26;19.30;99.90
55004;DHT22;40900;52.710;6.438;2023-07-24T08:00:51;19.20;99.90
55004;DHT22;40900;52.710;6.438;2023-07-24T08:03:17;19.10;99.90
55004;DHT22;40900;52.710;6.438;2023-07-24T08:05:43;19.00;99.90
55004;DHT22;40900;52.710;6.438;2023-07-24T08:08:09;19.10;99.90
55004;DHT22;40900;52.710;6.438;2023-07-24T08:10:37;19.20;99.90
55004;DHT22;40900;52.710;6.438;2023-07-24T08:13:03;19.40;99.90
55004;DHT22;40900;52.710;6.438;2023-07-24T08:15:33;19.20;99.90
55004;DHT22;40900;52.710;6.438;2023-07-24T08:17:59;19.20;99.90
55004;DHT22;40900;52.710;6.438;2023-07-24T08:20:25;19.00;99.90
55004;DHT22;40900;52.710;6.438;2023-07-24T08:22:50;19.00;99.90
55004;DHT22;40900;52.710;6.438;2023-07-24T08:25:16;18.90;99.90
55004;DHT22;40900;52.710;6.438;2023-07-24T08:27:43;19.10;99.90
55004;DHT22;40900;52.710;6.438;2023-07-24T08:30:09;19.50;99.90
55004;DHT22;40900;52.710;6.438;2023-07-24T08:32:35;20.00;99.90
55004;DHT22;40900;52.710;6.438;2023-07-24T08:35:01;20.50;99.90
55004;DHT22;40900;52.710;6.438;2023-07-24T08:37:26;21.20;99.90
55004;DHT22;40900;52.710;6.438;2023-07-24T08:39:52;22.00;99.90
55004;DHT22;40900;52.710;6.438;2023-07-24T08:42:18;22.20;99.90
55004;DHT22;40900;52.710;6.438;2023-07-24T08:44:45;22.70;99.90
55004;DHT22;40900;52.710;6.438;2023-07-24T08:47:11;22.30;99.90
55004;DHT22;40900;52.710;6.438;2023-07-24T08:49:39;22.80;99.90
55004;DHT22;40900;52.710;6.438;2023-07-24T08:52:08;22.70;99.90
55004;DHT22;40900;52.710;6.438;2023-07-24T08:54:35;22.70;99.90
55004;DHT22;40900;52.710;6.438;2023-07-24T08:57:06;22.40;99.90
55004;DHT22;40900;52.710;6.438;2023-07-24T08:59:32;22.10;99.90
55004;DHT22;40900;52.710;6.438;2023-07-24T09:01:57;21.50;99.90
55004;DHT22;40900;52.710;6.438;2023-07-24T09:04:24;21.20;99.90
55004;DHT22;40900;52.710;6.438;2023-07-24T09:06:50;20.70;99.90
55004;DHT22;40900;52.710;6.438;2023-07-24T09:09:17;20.50;99.90
55004;DHT22;40900;52.710;6.438;2023-07-24T09:11:50;20.70;99.90
55004;DHT22;40900;52.710;6.438;2023-07-24T09:14:27;21.50;99.90
55004;DHT22;40900;52.710;6.438;2023-07-24T09:17:08;21.70;99.90
55004;DHT22;40900;52.710;6.438;2023-07-24T09:19:34;21.90;99.90
55004;DHT22;40900;52.710;6.438;2023-07-24T09:22:14;21.70;99.90
55004;DHT22;40900;52.710;6.438;2023-07-24T09:24:54;21.70;99.90
55004;DHT22;40900;52.710;6.438;2023-07-24T09:27:23;21.20;99.90
55004;DHT22;40900;52.710;6.438;2023-07-24T09:29:50;21.30;99.90
55004;DHT22;40900;52.710;6.438;2023-07-24T09:32:24;21.40;99.90
55004;DHT22;40900;52.710;6.438;2023-07-24T09:34:50;21.40;99.90
55004;DHT22;40900;52.710;6.438;2023-07-24T09:37:30;21.10;99.90
55004;DHT22;40900;52.710;6.438;2023-07-24T09:39:55;21.10;99.90
55004;DHT22;40900;52.710;6.438;2023-07-24T09:42:34;20.90;99.90
55004;DHT22;40900;52.710;6.438;2023-07-24T09:45:05;22.00;99.90
55004;DHT22;40900;52.710;6.438;2023-07-24T09:47:31;22.00;99.90
55004;DHT22;40900;52.710;6.438;2023-07-24T09:49:59;22.90;99.90
55004;DHT22;40900;52.710;6.438;2023-07-24T09:52:28;23.00;99.90
55004;DHT22;40900;52.710;6.438;2023-07-24T09:57:35;22.10;99.90
55004;DHT22;40900;52.710;6.438;2023-07-24T10:00:01;21.80;99.90
55004;DHT22;40900;52.710;6.438;2023-07-24T10:02:28;21.60;99.90
55004;DHT22;40900;52.710;6.438;2023-07-24T10:04:55;21.80;99.90
55004;DHT22;40900;52.710;6.438;2023-07-24T10:07:22;22.10;99.90
55004;DHT22;40900;52.710;6.438;2023-07-24T10:09:49;22.40;99.90
55004;DHT22;40900;52.710;6.438;2023-07-24T10:12:17;23.00;99.90
55004;DHT22;40900;52.710;6.438;2023-07-24T10:14:46;23.40;99.90
55004;DHT22;40900;52.710;6.438;2023-07-24T10:17:12;23.30;99.90
55004;DHT22;40900;52.710;6.438;2023-07-24T10:19:44;23.70;99.90
55004;DHT22;40900;52.710;6.438;2023-07-24T10:22:17;23.90;99.90
55004;DHT22;40900;52.710;6.438;2023-07-24T10:24:45;24.30;99.90
55004;DHT22;40900;52.710;6.438;2023-07-24T10:27:11;24.40;99.90
55004;DHT22;40900;52.710;6.438;2023-07-24T10:29:37;24.30;99.90
55004;DHT22;40900;52.710;6.438;2023-07-24T10:32:16;24.10;99.90
55004;DHT22;40900;52.710;6.438;2023-07-24T10:34:42;24.00;99.90
55004;DHT22;40900;52.710;6.438;2023-07-24T10:37:08;24.30;99.90
55004;DHT22;40900;52.710;6.438;2023-07-24T10:39:39;24.50;99.90
55004;DHT22;40900;52.710;6.438;2023-07-24T10:42:10;24.40;99.90
55004;DHT22;40900;52.710;6.438;2023-07-24T10:44:37;24.20;99.90
55004;DHT22;40900;52.710;6.438;2023-07-24T10:47:03;24.40;99.90
55004;DHT22;40900;52.710;6.438;2023-07-24T10:49:29;24.40;99.90
55004;DHT22;40900;52.710;6.438;2023-07-24T10:51:56;24.60;99.90
55004;DHT22;40900;52.710;6.438;2023-07-24T10:54:22;24.70;99.90
55004;DHT22;40900;52.710;6.438;2023-07-24T10:56:48;24.50;99.90
55004;DHT22;40900;52.710;6.438;2023-07-24T10:59:14;24.30;99.90
55004;DHT22;40900;52.710;6.438;2023-07-24T11:01:40;24.10;99.90
55004;DHT22;40900;52.710;6.438;2023-07-24T11:04:07;23.70;99.90
55004;DHT22;40900;52.710;6.438;2023-07-24T11:06:33;23.70;99.90
55004;DHT22;40900;52.710;6.438;2023-07-24T11:08:59;24.00;99.90
55004;DHT22;40900;52.710;6.438;2023-07-24T11:11:35;24.50;99.90
55004;DHT22;40900;52.710;6.438;2023-07-24T11:14:02;24.20;99.90
55004;DHT22;40900;52.710;6.438;2023-07-24T11:16:28;24.10;99.90
55004;DHT22;40900;52.710;6.438;2023-07-24T11:18:56;23.70;99.90
55004;DHT22;40900;52.710;6.438;2023-07-24T11:21:23;23.90;99.90
55004;DHT22;40900;52.710;6.438;2023-07-24T11:23:54;23.90;99.90
55004;DHT22;40900;52.710;6.438;2023-07-24T11:26:25;23.80;99.90
55004;DHT22;40900;52.710;6.438;2023-07-24T11:28:52;23.20;99.90
55004;DHT22;40900;52.710;6.438;2023-07-24T11:31:18;23.20;99.90
55004;DHT22;40900;52.710;6.438;2023-07-24T11:33:49;23.10;99.90
55004;DHT22;40900;52.710;6.438;2023-07-24T11:36:15;22.90;99.90
55004;DHT22;40900;52.710;6.438;2023-07-24T11:38:41;22.50;99.90
55004;DHT22;40900;52.710;6.438;2023-07-24T11:41:08;22.30;99.90
55004;DHT22;40900;52.710;6.438;2023-07-24T11:43:34;22.50;99.90
55004;DHT22;40900;52.710;6.438;2023-07-24T11:46:00;22.50;99.90
55004;DHT22;40900;52.710;6.438;2023-07-24T11:48:26;22.50;99.90
55004;DHT22;40900;52.710;6.438;2023-07-24T11:50:54;22.60;99.90
55004;DHT22;40900;52.710;6.438;2023-07-24T11:53:29;22.60;99.90
55004;DHT22;40900;52.710;6.438;2023-07-24T11:55:57;22.90;99.90
55004;DHT22;40900;52.710;6.438;2023-07-24T11:58:26;23.20;99.90
55004;DHT22;40900;52.710;6.438;2023-07-24T12:00:52;23.50;99.90
55004;DHT22;40900;52.710;6.438;2023-07-24T12:03:25;23.60;99.90
55004;DHT22;40900;52.710;6.438;2023-07-24T12:05:51;23.70;99.90
55004;DHT22;40900;52.710;6.438;2023-07-24T12:08:28;23.50;99.90
55004;DHT22;40900;52.710;6.438;2023-07-24T12:10:54;23.40;99.90
55004;DHT22;40900;52.710;6.438;2023-07-24T12:13:20;23.50;99.90
55004;DHT22;40900;52.710;6.438;2023-07-24T12:15:46;23.30;99.90
55004;DHT22;40900;52.710;6.438;2023-07-24T12:18:12;23.10;99.90
55004;DHT22;40900;52.710;6.438;2023-07-24T12:20:38;22.90;99.90
55004;DHT22;40900;52.710;6.438;2023-07-24T12:23:03;23.10;99.90
55004;DHT22;40900;52.710;6.438;2023-07-24T12:25:30;23.10;99.90
55004;DHT22;40900;52.710;6.438;2023-07-24T12:27:56;23.00;99.90
55004;DHT22;40900;52.710;6.438;2023-07-24T12:30:21;23.40;99.90
55004;DHT22;40900;52.710;6.438;2023-07-24T12:32:47;23.50;99.90
55004;DHT22;40900;52.710;6.438;2023-07-24T12:35:15;23.70;99.90
55004;DHT22;40900;52.710;6.438;2023-07-24T12:37:47;23.90;99.90
55004;DHT22;40900;52.710;6.438;2023-07-24T12:40:13;23.50;99.90
55004;DHT22;40900;52.710;6.438;2023-07-24T12:42:39;23.20;99.90
55004;DHT22;40900;52.710;6.438;2023-07-24T12:45:05;23.10;99.90
55004;DHT22;40900;52.710;6.438;2023-07-24T12:47:32;22.70;99.90
55004;DHT22;40900;52.710;6.438;2023-07-24T12:49:58;22.70;99.90
55004;DHT22;40900;52.710;6.438;2023-07-24T12:52:25;22.80;99.90
55004;DHT22;40900;52.710;6.438;2023-07-24T12:54:51;22.80;99.90
55004;DHT22;40900;52.710;6.438;2023-07-24T12:57:17;22.80;99.90
55004;DHT22;40900;52.710;6.438;2023-07-24T12:59:43;23.10;99.90
55004;DHT22;40900;52.710;6.438;2023-07-24T13:02:09;23.20;99.90
55004;DHT22;40900;52.710;6.438;2023-07-24T13:04:35;23.30;99.90
55004;DHT22;40900;52.710;6.438;2023-07-24T13:07:00;23.10;99.90
55004;DHT22;40900;52.710;6.438;2023-07-24T13:09:27;23.20;99.90
55004;DHT22;40900;52.710;6.438;2023-07-24T13:11:53;23.20;99.90
55004;DHT22;40900;52.710;6.438;2023-07-24T13:14:20;23.10;99.90
55004;DHT22;40900;52.710;6.438;2023-07-24T13:16:46;23.10;99.90
55004;DHT22;40900;52.710;6.438;2023-07-24T13:19:12;22.90;99.90
55004;DHT22;40900;52.710;6.438;2023-07-24T13:21:38;22.60;99.90
55004;DHT22;40900;52.710;6.438;2023-07-24T13:24:06;22.40;99.90
55004;DHT22;40900;52.710;6.438;2023-07-24T13:26:32;22.10;99.90
55004;DHT22;40900;52.710;6.438;2023-07-24T13:28:58;21.60;99.90
55004;DHT22;40900;52.710;6.438;2023-07-24T13:31:23;21.50;99.90
55004;DHT22;40900;52.710;6.438;2023-07-24T13:33:49;21.20;99.90
55004;DHT22;40900;52.710;6.438;2023-07-24T13:36:15;21.10;99.90
55004;DHT22;40900;52.710;6.438;2023-07-24T13:38:40;20.90;99.90
55004;DHT22;40900;52.710;6.438;2023-07-24T13:41:07;20.70;99.90
55004;DHT22;40900;52.710;6.438;2023-07-24T13:43:34;20.70;99.90
55004;DHT22;40900;52.710;6.438;2023-07-24T13:46:00;20.60;99.90
55004;DHT22;40900;52.710;6.438;2023-07-24T13:48:28;20.50;99.90
55004;DHT22;40900;52.710;6.438;2023-07-24T13:50:55;20.30;99.90
55004;DHT22;40900;52.710;6.438;2023-07-24T13:53:21;20.30;99.90
55004;DHT22;40900;52.710;6.438;2023-07-24T13:55:48;20.40;99.90
55004;DHT22;40900;52.710;6.438;2023-07-24T13:58:14;20.40;99.90
55004;DHT22;40900;52.710;6.438;2023-07-24T14:00:39;20.30;99.90
55004;DHT22;40900;52.710;6.438;2023-07-24T14:03:05;20.30;99.90
55004;DHT22;40900;52.710;6.438;2023-07-24T14:05:33;20.30;99.90
55004;DHT22;40900;52.710;6.438;2023-07-24T14:07:58;20.20;99.90
55004;DHT22;40900;52.710;6.438;2023-07-24T14:10:24;20.20;99.90
55004;DHT22;40900;52.710;6.438;2023-07-24T14:12:50;20.20;99.90
55004;DHT22;40900;52.710;6.438;2023-07-24T14:15:16;20.20;99.90
55004;DHT22;40900;52.710;6.438;2023-07-24T14:17:41;20.20;99.90
55004;DHT22;40900;52.710;6.438;2023-07-24T14:20:08;20.20;99.90
55004;DHT22;40900;52.710;6.438;2023-07-24T14:22:33;20.10;99.90
55004;DHT22;40900;52.710;6.438;2023-07-24T14:24:59;20.20;99.90
55004;DHT22;40900;52.710;6.438;2023-07-24T14:27:25;20.00;99.90
55004;DHT22;40900;52.710;6.438;2023-07-24T14:29:51;20.10;99.90
55004;DHT22;40900;52.710;6.438;2023-07-24T14:32:16;20.00;99.90
55004;DHT22;40900;52.710;6.438;2023-07-24T14:34:42;20.00;99.90
55004;DHT22;40900;52.710;6.438;2023-07-24T14:37:08;20.00;99.90
55004;DHT22;40900;52.710;6.438;2023-07-24T14:39:34;20.10;99.90
55004;DHT22;40900;52.710;6.438;2023-07-24T14:42:00;20.20;99.90
55004;DHT22;40900;52.710;6.438;2023-07-24T14:44:26;20.40;99.90
55004;DHT22;40900;52.710;6.438;2023-07-24T14:46:51;20.50;99.90
55004;DHT22;40900;52.710;6.438;2023-07-24T14:49:19;20.80;99.90
55004;DHT22;40900;52.710;6.438;2023-07-24T14:51:45;21.00;99.90
55004;DHT22;40900;52.710;6.438;2023-07-24T14:54:11;21.30;99.90
55004;DHT22;40900;52.710;6.438;2023-07-24T14:56:36;21.50;99.90
55004;DHT22;40900;52.710;6.438;2023-07-24T14:59:02;21.70;99.90
55004;DHT22;40900;52.710;6.438;2023-07-24T15:01:28;21.80;99.90
55004;DHT22;40900;52.710;6.438;2023-07-24T15:03:56;21.90;99.90
55004;DHT22;40900;52.710;6.438;2023-07-24T15:06:22;21.70;99.90
55004;DHT22;40900;52.710;6.438;2023-07-24T15:08:49;21.70;99.90
55004;DHT22;40900;52.710;6.438;2023-07-24T15:11:19;21.50;99.90
55004;DHT22;40900;52.710;6.438;2023-07-24T15:13:45;21.30;99.90
55004;DHT22;40900;52.710;6.438;2023-07-24T15:16:11;21.20;99.90
55004;DHT22;40900;52.710;6.438;2023-07-24T15:18:36;21.30;99.90
55004;DHT22;40900;52.710;6.438;2023-07-24T15:21:02;21.30;99.90
55004;DHT22;40900;52.710;6.438;2023-07-24T15:23:28;21.30;99.90
55004;DHT22;40900;52.710;6.438;2023-07-24T15:25:54;21.50;99.90
55004;DHT22;40900;52.710;6.438;2023-07-24T15:28:19;21.70;99.90
55004;DHT22;40900;52.710;6.438;2023-07-24T15:30:45;21.90;99.90
55004;DHT22;40900;52.710;6.438;2023-07-24T15:33:11;22.00;99.90